createdAt,value
2019-02-05T00:00:50.933Z,49.80
2019-02-05T00:03:23.939Z,45.77
2019-02-05T00:05:55.379Z,49.90
2019-02-05T00:08:26.259Z,49.40
2019-02-05T00:10:57.939Z,56.97
2019-02-05T00:13:28.739Z,47.63
2019-02-05T00:15:59.944Z,46.83
2019-02-05T00:18:31.139Z,51.27
2019-02-05T00:21:02.196Z,44.33
2019-02-05T00:23:33.099Z,53.30
2019-02-05T00:26:06.568Z,54.50
2019-02-05T00:28:37.339Z,51.67
2019-02-05T00:31:08.619Z,51.77
2019-02-05T00:33:39.499Z,55.37
2019-02-05T00:36:11.299Z,46.27
2019-02-05T00:38:42.139Z,39.30
2019-02-05T00:41:14.581Z,45.13
2019-02-05T00:43:45.863Z,42.07
2019-02-05T00:46:16.701Z,51.13
2019-02-05T00:48:48.546Z,45.87
2019-02-05T00:51:19.656Z,42.23
2019-02-05T00:53:50.816Z,40.23
2019-02-05T00:56:21.896Z,38.40
2019-02-05T00:58:52.983Z,39.03
2019-02-05T01:01:24.216Z,41.30
2019-02-05T01:03:55.464Z,37.43
2019-02-05T01:06:26.856Z,39.70
2019-02-05T01:08:58.072Z,36.77
2019-02-05T01:11:29.176Z,40.60
2019-02-05T01:14:00.136Z,40.20
2019-02-05T01:16:32.657Z,42.53
2019-02-05T01:19:03.976Z,39.30
2019-02-05T01:21:35.217Z,43.67
2019-02-05T01:24:06.616Z,42.33
2019-02-05T01:26:37.736Z,44.90
2019-02-05T01:29:09.856Z,43.63
2019-02-05T01:31:41.658Z,44.53
2019-02-05T01:34:13.696Z,38.47
2019-02-05T01:36:44.457Z,41.80
2019-02-05T01:39:16.296Z,42.23
2019-02-05T01:41:47.337Z,38.07
2019-02-05T01:44:18.256Z,45.13
2019-02-05T01:46:49.357Z,38.40
2019-02-05T01:49:21.075Z,38.87
2019-02-05T01:51:51.995Z,41.30
2019-02-05T01:54:22.795Z,42.83
2019-02-05T01:56:53.683Z,49.23
2019-02-05T01:59:25.115Z,40.07
2019-02-05T02:01:56.163Z,47.10
2019-02-05T02:04:27.435Z,45.30
2019-02-05T02:06:59.517Z,42.97
2019-02-05T02:09:30.596Z,45.87
2019-02-05T02:12:01.475Z,49.73
2019-02-05T02:14:32.517Z,48.10
2019-02-05T02:17:03.399Z,43.97
2019-02-05T02:19:36.115Z,45.33
2019-02-05T02:22:07.755Z,38.00
2019-02-05T02:24:38.716Z,42.90
2019-02-05T02:27:11.235Z,38.43
2019-02-05T02:29:41.995Z,40.50
2019-02-05T02:32:13.683Z,42.00
2019-02-05T02:34:44.595Z,39.57
2019-02-05T02:37:16.835Z,44.57
2019-02-05T02:39:47.637Z,52.40
2019-02-05T02:42:19.035Z,45.50
2019-02-05T02:44:50.116Z,48.87
2019-02-05T02:47:21.011Z,42.13
2019-02-05T02:49:51.973Z,52.67
2019-02-05T02:52:23.131Z,51.07
2019-02-05T02:54:54.261Z,50.50
2019-02-05T02:57:26.331Z,54.53
2019-02-05T02:59:57.091Z,50.60
2019-02-05T03:02:28.335Z,53.20
2019-02-05T03:04:59.212Z,56.00
2019-02-05T03:07:30.251Z,51.97
2019-02-05T03:10:01.252Z,57.30
2019-02-05T03:12:35.251Z,66.60
2019-02-05T03:15:07.171Z,64.90
2019-02-05T03:17:38.532Z,70.00
2019-02-05T03:20:10.612Z,66.80
2019-02-05T03:22:41.373Z,63.97
2019-02-05T03:25:14.491Z,67.17
2019-02-05T03:27:45.333Z,56.47
2019-02-05T03:30:18.657Z,59.93
2019-02-05T03:32:50.175Z,62.93
2019-02-05T03:35:21.691Z,67.00
2019-02-05T03:37:53.091Z,79.90
2019-02-05T03:41:01.859Z,80.10
2019-02-05T03:43:36.146Z,77.33
2019-02-05T03:46:15.105Z,77.27
2019-02-05T03:48:48.584Z,68.17
2019-02-05T03:51:28.271Z,72.80
2019-02-05T03:54:23.505Z,78.27
2019-02-05T03:57:30.606Z,76.77
2019-02-05T04:00:20.780Z,73.17
2019-02-05T04:03:03.220Z,66.37
2019-02-05T04:05:48.635Z,67.57
2019-02-05T04:08:48.384Z,70.23
2019-02-05T04:11:57.313Z,65.50
2019-02-05T04:15:06.791Z,65.23
2019-02-05T04:18:08.186Z,52.80
2019-02-05T04:21:12.944Z,75.67
2019-02-05T04:24:14.373Z,76.93
2019-02-05T04:27:23.825Z,63.43
2019-02-05T04:30:20.785Z,53.53
2019-02-05T04:33:12.673Z,71.17
2019-02-05T04:36:07.552Z,66.43
2019-02-05T04:39:08.820Z,73.73
2019-02-05T04:42:18.024Z,65.40
2019-02-05T04:45:15.071Z,60.43
2019-02-05T04:48:24.226Z,68.60
2019-02-05T04:51:33.181Z,77.43
2019-02-05T04:54:11.984Z,68.07
2019-02-05T04:56:59.469Z,49.70
2019-02-05T05:00:02.554Z,59.63
2019-02-05T05:02:50.625Z,66.00
2019-02-05T05:05:59.545Z,57.30
2019-02-05T05:09:00.160Z,57.47
2019-02-05T05:11:31.264Z,71.30
2019-02-05T05:14:02.346Z,55.30
2019-02-05T05:16:33.265Z,57.33
2019-02-05T05:19:05.108Z,62.90
2019-02-05T05:21:37.611Z,59.30
2019-02-05T05:24:09.454Z,49.23
2019-02-05T05:26:40.865Z,52.30
2019-02-05T05:29:11.946Z,61.27
2019-02-05T05:31:46.508Z,60.00
2019-02-05T05:34:20.344Z,56.03
2019-02-05T05:36:52.304Z,52.33
2019-02-05T05:39:27.306Z,50.27
2019-02-05T05:42:05.905Z,46.77
2019-02-05T05:44:44.144Z,46.87
2019-02-05T05:47:15.228Z,33.57
2019-02-05T05:49:51.506Z,42.50
2019-02-05T05:52:22.547Z,43.77
2019-02-05T05:54:53.583Z,36.50
2019-02-05T05:57:28.253Z,38.90
2019-02-05T05:59:59.747Z,42.17
2019-02-05T06:02:30.704Z,39.97
2019-02-05T06:05:06.466Z,40.50
2019-02-05T06:07:43.833Z,42.70
2019-02-05T06:10:15.904Z,15.23
2019-02-05T06:12:48.106Z,41.87
2019-02-05T06:15:20.516Z,43.00
2019-02-05T06:17:53.624Z,40.27
2019-02-05T06:20:25.221Z,46.57
2019-02-05T06:22:56.553Z,41.37
2019-02-05T06:25:27.466Z,40.20
2019-02-05T06:27:58.373Z,39.33
2019-02-05T06:30:29.744Z,38.73
2019-02-05T06:33:00.664Z,29.00
2019-02-05T06:35:31.586Z,36.57
2019-02-05T06:38:02.624Z,29.87
2019-02-05T06:40:34.105Z,21.03
2019-02-05T06:43:10.454Z,16.23
2019-02-05T06:45:48.864Z,26.17
2019-02-05T06:48:26.294Z,34.20
2019-02-05T06:51:04.033Z,24.50
2019-02-05T06:53:37.185Z,29.23
2019-02-05T06:56:08.050Z,20.93
2019-02-05T06:58:46.446Z,33.60
2019-02-05T07:01:12.268Z,27.50
2019-02-05T07:03:43.618Z,17.73
2019-02-05T07:06:14.746Z,30.83
2019-02-05T07:08:54.264Z,34.67
2019-02-05T07:11:38.445Z,33.63
2019-02-05T07:14:16.504Z,37.50
2019-02-05T07:29:44.296Z,36.63
2019-02-05T07:32:16.483Z,37.13
2019-02-05T07:34:48.686Z,31.57
2019-02-05T07:37:21.644Z,32.37
2019-02-05T07:39:55.244Z,30.87
2019-02-05T07:42:27.443Z,32.43
2019-02-05T07:45:01.442Z,25.17
2019-02-05T07:47:35.575Z,20.67
2019-02-05T07:50:15.647Z,47.97
2019-02-05T07:52:50.365Z,36.30
2019-02-05T07:55:25.282Z,25.97
2019-02-05T07:57:57.522Z,18.30
2019-02-05T08:00:29.364Z,25.37
2019-02-05T08:03:01.404Z,39.17
2019-02-05T08:05:33.364Z,31.67
2019-02-05T08:08:05.002Z,19.97
2019-02-05T08:10:37.077Z,25.70
2019-02-05T08:13:08.404Z,33.93
2019-02-05T08:15:39.603Z,26.80
2019-02-05T08:18:12.244Z,34.20
2019-02-05T08:20:44.443Z,29.13
2019-02-05T08:23:15.323Z,26.53
2019-02-05T08:25:47.005Z,28.67
2019-02-05T08:28:18.003Z,29.07
2019-02-05T08:30:49.628Z,19.63
2019-02-05T08:33:21.076Z,20.63
2019-02-05T08:35:52.149Z,30.70
2019-02-05T08:38:22.870Z,21.70
2019-02-05T08:40:54.508Z,32.77
2019-02-05T08:43:25.549Z,27.57
2019-02-05T08:45:57.028Z,22.60
2019-02-05T08:48:28.428Z,26.03
2019-02-05T08:50:59.669Z,33.17
2019-02-05T08:53:31.068Z,24.27
2019-02-05T08:56:01.750Z,28.87
2019-02-05T08:58:32.830Z,30.73
2019-02-05T09:01:03.868Z,24.43
2019-02-05T09:03:34.956Z,21.33
2019-02-05T09:06:06.068Z,29.70
2019-02-05T09:08:38.508Z,24.27
2019-02-05T13:14:40.072Z,40.33
2019-02-05T13:17:10.558Z,46.97
2019-02-05T13:19:42.084Z,46.27
2019-02-05T13:22:12.488Z,44.90
2019-02-05T13:24:43.535Z,40.60
2019-02-05T13:27:14.018Z,50.80
2019-02-05T13:29:45.015Z,49.63
2019-02-05T13:32:16.050Z,38.67
2019-02-05T13:34:46.613Z,44.80
2019-02-05T13:37:17.328Z,55.07
2019-02-05T13:39:48.958Z,52.37
2019-02-05T13:42:19.734Z,44.03
2019-02-05T13:44:50.315Z,49.73
2019-02-05T13:47:21.152Z,42.90
2019-02-05T13:49:52.208Z,41.37
2019-02-05T13:52:22.940Z,47.90
2019-02-05T13:54:55.378Z,48.03
2019-02-05T13:57:26.906Z,46.03
2019-02-05T13:59:58.051Z,47.17
2019-02-05T14:02:30.114Z,51.07
2019-02-05T14:05:00.755Z,52.47
2019-02-05T14:07:31.496Z,58.67
2019-02-05T14:10:02.483Z,52.00
2019-02-05T14:12:32.858Z,53.53
2019-02-05T14:15:04.212Z,51.23
2019-02-05T14:17:35.856Z,46.23
2019-02-05T14:20:07.732Z,59.07
2019-02-05T14:22:38.255Z,55.67
2019-02-05T14:25:10.854Z,55.23
2019-02-05T14:27:41.405Z,53.10
2019-02-05T14:30:22.735Z,52.17
2019-02-05T14:32:53.266Z,56.30
2019-02-05T14:35:24.025Z,49.87
2019-02-05T14:37:55.255Z,50.70
2019-02-05T14:40:25.991Z,56.77
2019-02-05T14:42:56.802Z,59.40
2019-02-05T14:45:30.074Z,55.43
2019-02-05T14:48:01.168Z,61.10
2019-02-05T14:50:32.661Z,61.80
2019-02-05T14:53:03.497Z,72.87
2019-02-05T14:55:34.054Z,63.97
2019-02-05T14:58:05.855Z,68.70
2019-02-05T15:00:37.062Z,65.63
2019-02-05T15:03:09.378Z,57.17
2019-02-05T15:05:40.610Z,57.70
2019-02-05T15:08:12.130Z,65.50
2019-02-05T15:10:42.684Z,65.17
2019-02-05T15:13:15.874Z,64.37
2019-02-05T15:15:46.157Z,62.83
2019-02-05T15:18:19.410Z,63.27
2019-02-05T15:20:52.149Z,59.00
2019-02-05T15:23:23.065Z,57.37
2019-02-05T15:25:54.111Z,85.77
2019-02-05T15:28:24.579Z,67.77
2019-02-05T15:30:55.525Z,63.00
2019-02-05T15:33:35.760Z,72.73
2019-02-05T15:36:16.991Z,67.77
2019-02-05T15:38:49.239Z,71.30
2019-02-05T15:41:19.836Z,70.07
2019-02-05T15:43:50.225Z,67.73
2019-02-05T15:46:20.710Z,65.87
2019-02-05T15:48:54.437Z,74.37
2019-02-05T15:51:25.041Z,73.33
2019-02-05T15:53:56.017Z,73.80
2019-02-05T15:56:27.028Z,71.73
2019-02-05T15:58:57.527Z,90.27
2019-02-05T16:01:28.589Z,68.67
2019-02-05T16:03:59.365Z,65.50
2019-02-05T16:06:30.093Z,71.27
2019-02-05T16:09:01.028Z,68.67
2019-02-05T16:11:33.311Z,72.57
2019-02-05T16:14:04.005Z,76.17
2019-02-05T16:16:34.618Z,81.50
2019-02-05T16:19:05.295Z,70.50
2019-02-05T16:21:35.721Z,79.67
2019-02-05T16:24:06.711Z,73.67
2019-02-05T16:26:37.102Z,87.40
2019-02-05T16:29:09.048Z,81.43
2019-02-05T16:31:40.663Z,93.50
2019-02-05T16:34:11.427Z,83.03
2019-02-05T16:36:41.907Z,84.90
2019-02-05T16:39:14.003Z,88.60
2019-02-05T16:41:45.381Z,85.97
2019-02-05T16:44:15.752Z,101.27
2019-02-05T16:46:46.599Z,75.93
2019-02-05T16:49:17.331Z,81.37
2019-02-05T16:51:47.759Z,81.57
2019-02-05T16:54:18.156Z,81.37
2019-02-05T16:56:48.527Z,76.90
2019-02-05T16:59:19.933Z,85.30
2019-02-05T17:01:50.315Z,92.30
2019-02-05T17:04:20.710Z,86.07
2019-02-05T17:06:52.395Z,94.23
2019-02-05T17:09:23.601Z,95.13
2019-02-05T17:11:56.872Z,90.40
2019-02-05T17:14:26.503Z,93.40
2019-02-05T17:16:57.351Z,91.47
2019-02-05T17:19:28.361Z,95.73
2019-02-05T17:22:02.383Z,89.60
2019-02-05T17:24:32.927Z,95.43
2019-02-05T17:27:03.304Z,89.13
2019-02-05T17:29:33.847Z,97.90
2019-02-05T17:32:07.745Z,104.20
2019-02-05T17:34:39.187Z,101.17
2019-02-05T17:37:12.757Z,105.57
2019-02-05T17:39:43.330Z,103.83
2019-02-05T17:42:14.603Z,110.00
2019-02-05T17:44:45.335Z,110.27
2019-02-05T17:47:17.039Z,115.20
2019-02-05T17:49:47.904Z,108.23
2019-02-05T17:52:18.935Z,119.87
2019-02-05T17:54:52.267Z,105.97
2019-02-05T17:57:22.946Z,109.27
2019-02-05T17:59:54.208Z,104.27
2019-02-05T18:02:25.181Z,118.37
2019-02-05T18:04:55.764Z,115.73
2019-02-05T18:07:26.566Z,126.20
2019-02-05T18:09:57.528Z,128.43
2019-02-05T18:12:28.426Z,126.67
2019-02-05T18:14:59.329Z,135.50
2019-02-05T18:17:30.087Z,126.00
2019-02-05T18:20:01.019Z,121.33
2019-02-05T18:22:32.194Z,124.10
2019-02-05T18:25:02.907Z,118.70
2019-02-05T18:27:34.197Z,118.50
2019-02-05T18:30:08.185Z,130.93
2019-02-05T18:32:40.629Z,121.30
2019-02-05T18:35:11.761Z,124.07
2019-02-05T18:37:42.473Z,123.87
2019-02-05T18:40:14.235Z,138.60
2019-02-05T18:42:45.041Z,144.67
2019-02-05T18:45:16.582Z,140.17
2019-02-05T18:47:46.963Z,136.00
2019-02-05T18:50:19.879Z,147.23
2019-02-05T18:52:50.675Z,146.00
2019-02-05T18:55:22.304Z,156.50
2019-02-05T18:57:53.048Z,149.07
2019-02-05T19:00:26.494Z,148.63
2019-02-05T19:02:57.733Z,145.67
2019-02-05T19:05:28.541Z,152.07
2019-02-05T19:07:58.963Z,139.30
2019-02-05T19:10:32.071Z,148.40
2019-02-05T19:13:02.765Z,159.17
2019-02-05T19:15:34.925Z,147.60
2019-02-05T19:18:06.859Z,150.53
2019-02-05T19:20:37.519Z,148.30
2019-02-05T19:23:09.126Z,163.97
2019-02-05T19:26:02.175Z,151.23
2019-02-05T19:28:37.052Z,164.17
2019-02-05T19:31:26.595Z,149.93
2019-02-05T19:33:56.935Z,154.57
2019-02-05T19:36:31.257Z,153.27
2019-02-05T19:39:01.600Z,167.83
2019-02-05T19:41:34.386Z,154.93
2019-02-05T19:44:05.053Z,139.73
2019-02-05T19:46:54.224Z,155.47
2019-02-05T19:49:42.318Z,153.03
2019-02-05T19:52:13.009Z,162.40
2019-02-05T19:54:43.458Z,150.60
2019-02-05T19:57:13.849Z,151.40
2019-02-05T19:59:44.742Z,155.43
2019-02-05T20:02:15.565Z,155.50
2019-02-05T20:04:46.005Z,166.20
2019-02-05T20:07:16.335Z,160.07
2019-02-05T20:09:46.743Z,159.10
2019-02-05T20:12:17.264Z,160.93
2019-02-05T20:14:48.051Z,134.03
2019-02-05T20:17:18.730Z,145.87
2019-02-05T20:19:49.211Z,119.83
2019-02-05T20:22:19.638Z,149.97
2019-02-05T20:24:50.106Z,164.17
2019-02-05T20:27:20.625Z,145.53
2019-02-05T20:29:51.657Z,151.37
2019-02-05T20:32:22.280Z,151.40
2019-02-05T20:34:53.003Z,159.10
2019-02-05T20:37:23.434Z,149.87
2019-02-05T20:39:53.976Z,153.80
2019-02-05T20:42:24.636Z,152.27
2019-02-05T20:44:55.082Z,167.30
2019-02-05T20:47:25.758Z,147.03
2019-02-05T20:49:56.262Z,160.67
2019-02-05T20:52:27.031Z,164.93
2019-02-05T20:54:57.451Z,158.53
2019-02-05T20:57:27.819Z,148.63
2019-02-05T20:59:58.447Z,159.70
2019-02-05T21:02:28.959Z,151.73
2019-02-05T21:04:59.366Z,158.23
2019-02-05T21:07:29.718Z,153.23
2019-02-05T21:10:00.067Z,145.67
2019-02-05T21:12:30.479Z,150.93
2019-02-05T21:15:01.014Z,145.90
2019-02-05T21:17:31.467Z,154.63
2019-02-05T21:20:01.785Z,147.77
2019-02-05T21:22:32.200Z,159.77
2019-02-05T21:25:02.543Z,148.70
2019-02-05T21:27:33.127Z,162.20
2019-02-05T21:30:05.044Z,166.80
2019-02-05T21:32:35.517Z,150.37
2019-02-05T21:35:06.889Z,162.07
2019-02-05T21:37:37.286Z,152.20
2019-02-05T21:40:10.894Z,160.47
2019-02-05T21:42:41.327Z,150.27
2019-02-05T21:45:14.049Z,160.67
2019-02-05T21:47:44.463Z,156.70
2019-02-05T21:50:17.491Z,154.93
2019-02-05T21:52:48.660Z,145.23
2019-02-05T21:55:19.942Z,143.20
2019-02-05T21:57:50.278Z,143.00
2019-02-05T22:00:24.046Z,144.80
2019-02-05T22:02:54.614Z,143.13
2019-02-05T22:05:26.092Z,156.47
2019-02-05T22:07:56.955Z,138.40
2019-02-05T22:10:27.596Z,149.50
2019-02-05T22:12:58.339Z,137.53
2019-02-05T22:15:29.658Z,138.20
2019-02-05T22:18:00.346Z,144.13
2019-02-05T22:20:32.004Z,168.27
2019-02-05T22:23:02.563Z,155.50
2019-02-05T22:25:33.168Z,144.63
2019-02-05T22:28:03.895Z,157.90
2019-02-05T22:30:35.569Z,146.20
2019-02-05T22:33:08.108Z,150.27
2019-02-05T22:35:38.474Z,140.97
2019-02-05T22:38:09.038Z,152.03
2019-02-05T22:40:39.699Z,158.77
2019-02-05T22:43:10.582Z,137.53
2019-02-05T22:45:41.298Z,145.80
2019-02-05T22:48:11.919Z,147.03
2019-02-05T22:50:42.671Z,148.47
2019-02-05T22:53:13.127Z,148.23
2019-02-05T22:55:43.535Z,135.73
2019-02-05T22:58:13.971Z,143.27
2019-02-05T23:01:23.290Z,147.47
2019-02-05T23:03:59.228Z,150.50
2019-02-05T23:06:57.831Z,153.67
2019-02-05T23:09:56.451Z,153.70
2019-02-05T23:12:48.280Z,135.03
2019-02-05T23:15:29.187Z,144.23
2019-02-05T23:18:00.826Z,160.97
2019-02-05T23:20:31.989Z,137.97
2019-02-05T23:23:02.404Z,109.97
2019-02-05T23:25:32.967Z,134.10
2019-02-05T23:28:03.508Z,154.83
2019-02-05T23:30:33.855Z,153.80
2019-02-05T23:33:04.681Z,135.60
2019-02-05T23:35:34.949Z,134.83
2019-02-05T23:38:05.671Z,138.37
2019-02-05T23:40:36.114Z,126.47
2019-02-05T23:43:10.082Z,138.90
2019-02-05T23:45:40.488Z,122.57
2019-02-05T23:48:11.030Z,141.53
2019-02-05T23:50:43.194Z,140.33
2019-02-05T23:53:13.628Z,123.57
2019-02-05T23:55:44.168Z,125.43
2019-02-05T23:58:14.559Z,129.97
